createdAt,value
2023-02-06T00:01:46.351Z,72.78
2023-02-06T00:04:15.609Z,72.37
2023-02-06T00:06:44.807Z,73.01
2023-02-06T00:09:13.543Z,72.81
2023-02-06T00:11:41.973Z,72.80
2023-02-06T00:14:10.587Z,73.04
2023-02-06T00:16:39.162Z,73.24
2023-02-06T00:19:10.973Z,73.44
2023-02-06T00:21:39.558Z,73.87
2023-02-06T00:24:08.457Z,73.99
2023-02-06T00:26:37.092Z,73.57
2023-02-06T00:29:05.541Z,73.92
2023-02-06T00:31:34.011Z,73.70
2023-02-06T00:34:03.904Z,73.42
2023-02-06T00:36:34.331Z,73.47
2023-02-06T00:39:02.838Z,73.27
2023-02-06T00:41:31.290Z,73.53
2023-02-06T00:43:59.625Z,73.18
2023-02-06T00:46:28.110Z,72.98
2023-02-06T00:48:56.476Z,72.95
2023-02-06T00:51:24.900Z,73.45
2023-02-06T00:53:54.583Z,73.31
2023-02-06T00:56:23.042Z,73.32
2023-02-06T00:58:51.511Z,72.82
2023-02-06T01:01:19.899Z,73.24
2023-02-06T01:03:48.576Z,73.54
2023-02-06T01:06:17.015Z,73.53
2023-02-06T01:08:45.437Z,73.32
2023-02-06T01:11:18.997Z,73.28
2023-02-06T01:13:48.306Z,73.11
2023-02-06T01:16:19.441Z,73.13
2023-02-06T01:18:48.553Z,73.04
2023-02-06T01:21:20.539Z,72.81
2023-02-06T01:23:50.529Z,73.27
2023-02-06T01:26:24.459Z,73.23
2023-02-06T01:28:53.068Z,72.90
2023-02-06T01:31:24.127Z,73.65
2023-02-06T01:33:53.636Z,73.25
2023-02-06T01:36:23.260Z,73.02
2023-02-06T01:38:52.329Z,73.30
2023-02-06T01:41:24.460Z,73.18
2023-02-06T01:44:11.704Z,73.59
2023-02-06T01:46:42.132Z,73.00
2023-02-06T01:49:18.107Z,73.62
2023-02-06T01:51:47.431Z,73.32
2023-02-06T01:54:16.795Z,73.52
2023-02-06T01:56:52.882Z,73.27
2023-02-06T01:59:22.150Z,73.91
2023-02-06T02:01:50.814Z,73.81
2023-02-06T02:04:22.716Z,73.83
2023-02-06T02:07:04.390Z,73.96
2023-02-06T02:09:34.759Z,74.00
2023-02-06T02:12:04.962Z,74.23
2023-02-06T02:14:33.585Z,74.10
2023-02-06T02:17:20.806Z,73.93
2023-02-06T02:20:36.738Z,74.22
2023-02-06T02:23:21.652Z,73.82
2023-02-06T02:26:38.689Z,73.68
2023-02-06T02:30:00.980Z,74.12
2023-02-06T02:33:03.709Z,74.50
2023-02-06T02:35:50.861Z,74.00
2023-02-06T02:38:35.277Z,73.97
2023-02-06T02:41:11.959Z,74.72
2023-02-06T02:43:45.622Z,74.39
2023-02-06T02:46:27.519Z,74.59
2023-02-06T02:49:01.401Z,74.74
2023-02-06T02:51:31.413Z,74.94
2023-02-06T02:53:59.894Z,75.18
2023-02-06T02:56:31.284Z,75.15
2023-02-06T02:59:05.535Z,74.85
2023-02-06T03:01:39.066Z,75.03
2023-02-06T03:04:14.210Z,75.37
2023-02-06T03:07:05.463Z,75.44
2023-02-06T03:10:00.109Z,74.87
2023-02-06T03:12:39.648Z,75.51
2023-02-06T03:15:21.981Z,74.93
2023-02-06T03:17:57.141Z,75.00
2023-02-06T03:20:26.481Z,74.87
2023-02-06T03:22:58.392Z,75.05
2023-02-06T03:25:35.179Z,74.57
2023-02-06T03:28:06.321Z,75.01
2023-02-06T03:30:35.895Z,75.12
2023-02-06T03:33:09.142Z,74.73
2023-02-06T03:35:40.510Z,74.95
2023-02-06T03:38:10.755Z,74.83
2023-02-06T03:40:43.501Z,74.93
2023-02-06T03:43:18.615Z,74.65
2023-02-06T03:45:52.586Z,74.87
2023-02-06T03:48:27.924Z,74.72
2023-02-06T03:51:00.499Z,74.79
2023-02-06T03:53:31.035Z,74.46
2023-02-06T03:56:07.537Z,74.79
2023-02-06T03:58:36.050Z,74.63
2023-02-06T04:01:05.707Z,74.68
2023-02-06T04:03:34.414Z,74.77
2023-02-06T04:06:02.990Z,74.68
2023-02-06T04:08:32.674Z,74.53
2023-02-06T04:11:01.002Z,74.75
2023-02-06T04:13:29.436Z,75.05
2023-02-06T04:15:57.781Z,74.92
2023-02-06T04:18:26.135Z,74.98
2023-02-06T04:20:54.498Z,75.24
2023-02-06T04:23:23.381Z,75.36
2023-02-06T04:25:53.112Z,75.29
2023-02-06T04:28:21.521Z,75.23
2023-02-06T04:30:50.063Z,75.71
2023-02-06T04:33:18.573Z,75.39
2023-02-06T04:35:48.364Z,75.47
2023-02-06T04:38:16.849Z,75.59
2023-02-06T04:40:45.478Z,75.31
2023-02-06T04:43:15.280Z,75.62
2023-02-06T04:45:43.600Z,75.44
2023-02-06T04:48:11.988Z,75.68
2023-02-06T04:50:40.340Z,75.76
2023-02-06T04:53:08.714Z,75.52
2023-02-06T04:55:37.422Z,75.43
2023-02-06T04:58:05.939Z,75.69
2023-02-06T05:00:37.981Z,75.46
2023-02-06T05:03:07.192Z,75.74
2023-02-06T05:05:35.761Z,75.42
2023-02-06T05:08:04.156Z,75.25
2023-02-06T05:10:32.547Z,75.44
2023-02-06T05:13:02.068Z,75.44
2023-02-06T05:15:30.420Z,75.52
2023-02-06T05:18:00.172Z,75.56
2023-02-06T05:20:28.913Z,75.28
2023-02-06T05:22:57.469Z,75.41
2023-02-06T05:25:26.919Z,75.73
2023-02-06T05:27:57.500Z,75.82
2023-02-06T05:30:26.404Z,76.24
2023-02-06T05:32:54.827Z,76.34
2023-02-06T05:35:25.196Z,76.21
2023-02-06T05:37:53.715Z,76.14
2023-02-06T05:40:22.371Z,75.98
2023-02-06T05:42:51.310Z,75.84
2023-02-06T05:45:19.914Z,75.87
2023-02-06T05:47:48.238Z,76.20
2023-02-06T05:50:17.078Z,76.08
2023-02-06T05:52:46.887Z,76.15
2023-02-06T05:55:17.050Z,76.03
2023-02-06T05:57:45.488Z,76.52
2023-02-06T06:00:15.628Z,75.63
2023-02-06T06:02:43.920Z,76.12
2023-02-06T06:05:12.663Z,75.83
2023-02-06T06:07:41.001Z,76.27
2023-02-06T06:10:11.161Z,76.39
2023-02-06T06:12:39.532Z,76.50
2023-02-06T06:15:09.427Z,76.52
2023-02-06T06:17:37.820Z,76.63
2023-02-06T06:20:07.282Z,76.99
2023-02-06T06:22:35.657Z,76.77
2023-02-06T06:25:05.147Z,76.63
2023-02-06T06:27:36.835Z,76.76
2023-02-06T06:30:05.886Z,76.85
2023-02-06T06:32:34.353Z,76.84
2023-02-06T06:35:02.725Z,77.08
2023-02-06T06:37:31.446Z,77.06
2023-02-06T06:39:59.857Z,77.23
2023-02-06T06:42:28.267Z,76.76
2023-02-06T06:44:58.760Z,76.60
2023-02-06T06:47:27.164Z,76.52
2023-02-06T06:49:55.604Z,76.70
2023-02-06T06:52:25.652Z,76.22
2023-02-06T06:54:54.760Z,75.84
2023-02-06T06:57:23.920Z,76.69
2023-02-06T06:59:52.524Z,76.12
2023-02-06T07:02:22.263Z,75.85
2023-02-06T07:04:50.675Z,75.69
2023-02-06T07:07:19.047Z,75.55
2023-02-06T07:09:47.958Z,75.50
2023-02-06T07:12:16.384Z,74.84
2023-02-06T07:14:44.746Z,74.89
2023-02-06T07:17:13.121Z,74.31
2023-02-06T07:19:42.952Z,73.48
2023-02-06T07:22:11.307Z,73.60
2023-02-06T07:24:39.827Z,73.37
2023-02-06T07:27:08.502Z,73.07
2023-02-06T07:29:38.590Z,72.43
2023-02-06T07:32:08.014Z,72.43
2023-02-06T07:34:37.848Z,72.89
2023-02-06T07:37:07.892Z,72.53
2023-02-06T07:39:36.264Z,73.19
2023-02-06T07:42:05.380Z,72.48
2023-02-06T07:44:33.926Z,72.27
2023-02-06T07:47:02.277Z,72.50
2023-02-06T07:49:30.743Z,72.52
2023-02-06T07:51:59.081Z,71.99
2023-02-06T07:54:29.139Z,71.71
2023-02-06T07:56:57.776Z,71.91
2023-02-06T07:59:26.444Z,71.52
2023-02-06T08:01:55.083Z,71.99
2023-02-06T08:04:23.437Z,71.92
2023-02-06T08:06:51.882Z,71.15
2023-02-06T08:09:20.296Z,71.66
2023-02-06T08:11:49.984Z,71.39
2023-02-06T08:14:18.298Z,71.49
2023-02-06T08:16:46.905Z,71.48
2023-02-06T08:19:15.284Z,71.65
2023-02-06T08:21:43.946Z,71.03
2023-02-06T08:24:14.304Z,71.04
2023-02-06T08:26:43.853Z,70.50
2023-02-06T08:29:15.415Z,69.83
2023-02-06T08:31:44.607Z,69.56
2023-02-06T08:34:15.359Z,68.79
2023-02-06T08:36:43.986Z,68.27
2023-02-06T08:39:15.234Z,67.26
2023-02-06T08:41:45.065Z,66.21
2023-02-06T08:44:18.640Z,65.22
2023-02-06T08:46:52.273Z,64.33
2023-02-06T08:49:26.935Z,63.43
2023-02-06T08:51:55.773Z,61.76
2023-02-06T08:54:25.428Z,61.32
2023-02-06T08:56:56.758Z,60.75
2023-02-06T08:59:29.358Z,61.03
2023-02-06T09:02:00.450Z,64.96
2023-02-06T09:04:33.788Z,63.79
2023-02-06T09:07:02.213Z,64.15
2023-02-06T09:09:30.602Z,56.52
2023-02-06T09:12:03.303Z,47.04
2023-02-06T09:14:35.558Z,38.20
2023-02-06T09:17:04.406Z,32.22
2023-02-06T09:19:32.862Z,30.13
2023-02-06T09:22:01.229Z,27.68
2023-02-06T09:24:30.495Z,25.43
2023-02-06T09:27:00.423Z,23.26
2023-02-06T09:29:31.776Z,21.23
2023-02-06T09:32:02.498Z,19.74
2023-02-06T09:34:31.031Z,18.56
2023-02-06T09:37:02.174Z,18.17
2023-02-06T09:39:31.152Z,17.26
2023-02-06T09:42:06.430Z,17.37
2023-02-06T09:44:38.254Z,16.61
2023-02-06T09:47:23.764Z,17.20
2023-02-06T09:49:56.010Z,16.98
2023-02-06T09:52:42.998Z,16.58
2023-02-06T09:55:20.443Z,16.70
2023-02-06T09:57:58.318Z,17.63
2023-02-06T10:00:41.639Z,17.43
2023-02-06T10:03:30.937Z,17.24
2023-02-06T10:06:13.863Z,16.34
2023-02-06T10:08:49.885Z,16.54
2023-02-06T10:11:29.558Z,15.14
2023-02-06T10:14:01.512Z,14.59
2023-02-06T10:16:42.762Z,13.88
2023-02-06T10:19:20.267Z,13.47
2023-02-06T10:21:56.633Z,12.94
2023-02-06T10:24:38.517Z,14.13
2023-02-06T10:27:13.565Z,16.14
2023-02-06T10:29:46.274Z,17.20
2023-02-06T10:32:28.824Z,17.21
2023-02-06T10:35:25.866Z,18.13
2023-02-06T10:38:26.761Z,19.18
2023-02-06T10:41:01.241Z,20.04
2023-02-06T10:43:41.828Z,20.21
2023-02-06T10:46:43.466Z,19.67
2023-02-06T10:49:24.954Z,19.72
2023-02-06T10:51:59.320Z,21.58
2023-02-06T10:54:33.080Z,22.63
2023-02-06T10:57:02.021Z,24.11
2023-02-06T10:59:34.605Z,25.30
2023-02-06T11:02:23.517Z,27.47
2023-02-06T11:05:00.103Z,29.33
2023-02-06T11:07:34.317Z,31.21
2023-02-06T11:10:02.670Z,33.13
2023-02-06T11:12:36.806Z,34.95
2023-02-06T11:15:16.623Z,36.06
2023-02-06T11:17:47.128Z,38.42
2023-02-06T11:20:22.034Z,39.90
2023-02-06T11:22:53.748Z,40.87
2023-02-06T11:25:28.691Z,42.02
2023-02-06T11:27:59.167Z,42.85
2023-02-06T11:30:34.880Z,44.14
2023-02-06T11:33:08.230Z,45.55
2023-02-06T11:35:41.543Z,46.20
2023-02-06T11:38:17.956Z,48.25
2023-02-06T11:40:58.143Z,49.22
2023-02-06T11:43:28.993Z,49.82
2023-02-06T11:46:15.680Z,51.35
2023-02-06T11:48:46.076Z,51.79
2023-02-06T11:51:16.967Z,52.94
2023-02-06T11:54:01.223Z,53.08
2023-02-06T11:56:31.396Z,53.86
2023-02-06T11:59:07.360Z,54.12
2023-02-06T12:01:44.403Z,54.98
2023-02-06T12:04:24.041Z,54.75
2023-02-06T12:07:00.004Z,56.24
2023-02-06T12:09:30.065Z,55.90
2023-02-06T12:12:06.166Z,56.96
2023-02-06T12:14:41.282Z,57.03
2023-02-06T12:17:25.059Z,57.05
2023-02-06T12:20:04.016Z,57.02
2023-02-06T12:22:40.542Z,57.64
2023-02-06T12:25:25.980Z,57.15
2023-02-06T12:27:58.042Z,57.59
2023-02-06T12:30:37.743Z,58.34
2023-02-06T12:33:15.660Z,58.04
2023-02-06T12:35:49.834Z,58.04
2023-02-06T12:38:39.098Z,58.18
2023-02-06T12:41:27.951Z,58.88
2023-02-06T12:44:02.052Z,58.85
2023-02-06T12:46:30.893Z,58.22
2023-02-06T12:49:08.805Z,58.20
2023-02-06T12:51:43.326Z,58.95
2023-02-06T12:54:17.962Z,58.33
2023-02-06T12:56:52.157Z,58.19
2023-02-06T13:00:02.151Z,58.56
2023-02-06T13:03:02.943Z,57.98
2023-02-06T13:05:36.809Z,58.15
2023-02-06T13:08:10.905Z,58.77
2023-02-06T13:10:39.894Z,59.18
2023-02-06T13:13:28.244Z,58.73
2023-02-06T13:16:00.506Z,58.59
2023-02-06T13:18:54.719Z,59.00
2023-02-06T13:21:29.526Z,58.88
2023-02-06T13:24:20.782Z,58.94
2023-02-06T13:27:14.794Z,59.20
2023-02-06T13:29:46.485Z,59.46
2023-02-06T13:32:45.393Z,59.70
2023-02-06T13:35:26.546Z,59.21
2023-02-06T13:38:37.658Z,60.03
2023-02-06T13:41:37.244Z,59.44
2023-02-06T13:44:16.863Z,59.40
2023-02-06T13:47:28.156Z,59.57
2023-02-06T13:50:45.076Z,60.15
2023-02-06T13:53:44.268Z,60.68
2023-02-06T13:56:39.489Z,60.79
2023-02-06T13:59:16.789Z,60.16
2023-02-06T14:01:45.352Z,60.49
2023-02-06T14:04:24.886Z,60.74
2023-02-06T14:07:45.302Z,59.40
2023-02-06T14:11:17.572Z,59.48
2023-02-06T14:14:05.556Z,60.31
2023-02-06T14:16:49.548Z,60.72
2023-02-06T14:19:32.684Z,60.15
2023-02-06T14:22:11.334Z,61.00
2023-02-06T14:25:05.422Z,60.76
2023-02-06T14:27:48.380Z,61.64
2023-02-06T14:30:30.872Z,61.47
2023-02-06T14:33:21.855Z,62.11
2023-02-06T14:36:14.807Z,62.04
2023-02-06T14:39:10.774Z,62.59
2023-02-06T14:41:40.435Z,62.90
2023-02-06T14:44:14.565Z,63.71
2023-02-06T14:46:44.610Z,63.90
2023-02-06T14:49:18.853Z,64.07
2023-02-06T14:51:52.719Z,64.00
2023-02-06T14:54:34.860Z,64.77
2023-02-06T14:57:08.338Z,64.43
2023-02-06T14:59:36.739Z,64.59
2023-02-06T15:02:15.576Z,64.79
2023-02-06T15:04:48.580Z,64.85
2023-02-06T15:07:28.438Z,65.42
2023-02-06T15:10:08.580Z,65.75
2023-02-06T15:12:37.890Z,65.99
2023-02-06T15:15:20.481Z,66.08
2023-02-06T15:18:02.097Z,66.62
2023-02-06T15:20:36.631Z,66.68
2023-02-06T15:23:18.711Z,66.73
2023-02-06T15:26:03.739Z,67.13
2023-02-06T15:28:35.620Z,67.34
2023-02-06T15:31:04.956Z,67.71
2023-02-06T15:33:35.975Z,68.06
2023-02-06T15:36:06.137Z,67.83
2023-02-06T15:38:37.371Z,67.87
2023-02-06T15:41:09.586Z,68.36
2023-02-06T15:43:38.260Z,68.34
2023-02-06T15:46:07.457Z,68.86
2023-02-06T15:48:40.993Z,68.83
2023-02-06T15:51:25.243Z,68.97
2023-02-06T15:54:10.461Z,68.96
2023-02-06T15:56:42.886Z,69.36
2023-02-06T15:59:20.521Z,69.40
2023-02-06T16:01:50.043Z,69.68
2023-02-06T16:04:24.228Z,69.62
2023-02-06T16:07:05.184Z,70.01
2023-02-06T16:09:42.246Z,70.57
2023-02-06T16:12:12.495Z,70.13
2023-02-06T16:14:45.269Z,70.98
2023-02-06T16:17:31.516Z,71.15
2023-02-06T16:20:02.728Z,71.12
2023-02-06T16:22:34.185Z,70.97
2023-02-06T16:25:25.804Z,71.45
2023-02-06T16:27:54.751Z,71.34
2023-02-06T16:30:28.334Z,71.72
2023-02-06T16:32:58.935Z,71.73
2023-02-06T16:35:28.081Z,72.07
2023-02-06T16:37:57.124Z,72.09
2023-02-06T16:40:27.213Z,72.01
2023-02-06T16:42:55.890Z,72.00
2023-02-06T16:45:27.410Z,72.27
2023-02-06T16:47:56.464Z,72.42
2023-02-06T16:50:24.863Z,72.76
2023-02-06T16:52:58.057Z,72.52
2023-02-06T16:55:28.930Z,72.85
2023-02-06T16:58:01.506Z,73.06
2023-02-06T17:00:32.563Z,72.99
2023-02-06T17:03:01.412Z,72.99
2023-02-06T17:05:31.623Z,73.33
2023-02-06T17:08:01.690Z,73.33
2023-02-06T17:10:32.502Z,73.44
2023-02-06T17:13:00.853Z,73.00
2023-02-06T17:15:29.877Z,72.96
2023-02-06T17:17:58.336Z,73.63
2023-02-06T17:20:37.412Z,73.76
2023-02-06T17:23:06.876Z,73.51
2023-02-06T17:25:36.919Z,73.75
2023-02-06T17:28:07.570Z,73.82
2023-02-06T17:30:38.160Z,73.72
2023-02-06T17:33:07.633Z,73.68
2023-02-06T17:35:37.836Z,73.93
2023-02-06T17:38:06.739Z,73.92
2023-02-06T17:40:40.174Z,74.07
2023-02-06T17:43:09.005Z,74.05
2023-02-06T17:45:39.920Z,74.57
2023-02-06T17:48:09.030Z,74.15
2023-02-06T17:50:39.058Z,74.11
2023-02-06T17:53:10.343Z,74.54
2023-02-06T17:55:40.110Z,74.57
2023-02-06T17:58:08.670Z,74.32
2023-02-06T18:00:37.448Z,74.45
2023-02-06T18:03:06.240Z,74.48
2023-02-06T18:05:35.004Z,74.90
2023-02-06T18:08:03.536Z,74.56
2023-02-06T18:10:31.933Z,75.01
2023-02-06T18:13:01.719Z,75.46
2023-02-06T18:15:31.850Z,75.16
2023-02-06T18:18:00.323Z,75.74
2023-02-06T18:20:28.852Z,75.65
2023-02-06T18:22:57.307Z,75.96
2023-02-06T18:25:25.642Z,75.46
2023-02-06T18:27:54.230Z,75.23
2023-02-06T18:30:24.428Z,75.70
2023-02-06T18:32:52.838Z,75.15
2023-02-06T18:35:21.451Z,75.27
2023-02-06T18:37:50.236Z,75.61
2023-02-06T18:40:19.245Z,75.69
2023-02-06T18:42:54.130Z,75.15
2023-02-06T18:45:31.212Z,75.30
2023-02-06T18:47:59.760Z,75.25
2023-02-06T18:50:28.473Z,75.37
2023-02-06T18:52:56.913Z,75.43
2023-02-06T18:55:26.020Z,75.02
2023-02-06T18:57:55.796Z,74.76
2023-02-06T19:00:25.721Z,75.19
2023-02-06T19:02:54.260Z,74.94
2023-02-06T19:05:22.702Z,74.86
2023-02-06T19:07:52.592Z,75.28
2023-02-06T19:10:22.405Z,74.91
2023-02-06T19:12:50.845Z,74.19
2023-02-06T19:15:19.690Z,74.96
2023-02-06T19:17:50.526Z,74.49
2023-02-06T19:20:19.434Z,73.97
2023-02-06T19:22:47.918Z,74.31
2023-02-06T19:25:16.305Z,73.97
2023-02-06T19:27:44.736Z,73.85
2023-02-06T19:30:14.281Z,74.29
2023-02-06T19:32:45.539Z,74.20
2023-02-06T19:35:15.589Z,73.52
2023-02-06T19:37:43.917Z,73.54
2023-02-06T19:40:12.915Z,74.00
2023-02-06T19:42:41.572Z,73.60
2023-02-06T19:45:10.113Z,73.51
2023-02-06T19:47:38.632Z,73.63
2023-02-06T19:50:08.208Z,73.65
2023-02-06T19:52:37.954Z,73.37
2023-02-06T19:55:06.897Z,73.83
2023-02-06T19:57:35.360Z,73.41
2023-02-06T20:00:04.707Z,73.16
2023-02-06T20:02:33.117Z,73.56
2023-02-06T20:05:02.652Z,73.34
2023-02-06T20:07:31.913Z,73.31
2023-02-06T20:10:01.719Z,73.32
2023-02-06T20:12:30.520Z,72.91
2023-02-06T20:15:01.659Z,73.63
2023-02-06T20:17:30.233Z,73.35
2023-02-06T20:20:00.828Z,73.38
2023-02-06T20:22:30.080Z,73.33
2023-02-06T20:24:58.568Z,73.18
2023-02-06T20:27:28.869Z,73.53
2023-02-06T20:29:57.345Z,73.44
2023-02-06T20:32:25.819Z,73.43
2023-02-06T20:34:54.199Z,73.05
2023-02-06T20:37:22.555Z,73.16
2023-02-06T20:39:50.944Z,73.49
2023-02-06T20:42:22.362Z,73.30
2023-02-06T20:44:52.690Z,73.23
2023-02-06T20:47:21.002Z,73.06
2023-02-06T20:49:49.442Z,73.37
2023-02-06T20:52:19.172Z,73.24
2023-02-06T20:54:47.610Z,73.24
2023-02-06T20:57:16.345Z,73.06
2023-02-06T20:59:44.710Z,72.69
2023-02-06T21:02:17.099Z,73.00
2023-02-06T21:04:45.514Z,73.25
2023-02-06T21:07:14.019Z,73.16
2023-02-06T21:09:42.355Z,73.22
2023-02-06T21:12:10.701Z,73.56
2023-02-06T21:14:39.109Z,73.18
2023-02-06T21:17:07.461Z,73.51
2023-02-06T21:19:37.360Z,73.72
2023-02-06T21:22:05.853Z,73.27
2023-02-06T21:24:34.272Z,73.64
2023-02-06T21:27:02.776Z,73.28
2023-02-06T21:29:31.240Z,73.38
2023-02-06T21:32:12.564Z,73.62
2023-02-06T21:34:44.067Z,73.76
2023-02-06T21:37:12.571Z,73.58
2023-02-06T21:39:41.599Z,73.18
2023-02-06T21:42:11.469Z,73.50
2023-02-06T21:44:39.986Z,72.90
2023-02-06T21:47:09.929Z,73.36
2023-02-06T21:49:38.492Z,73.24
2023-02-06T21:52:08.296Z,72.92
2023-02-06T21:54:36.803Z,72.97
2023-02-06T21:57:05.346Z,73.27
2023-02-06T21:59:34.282Z,72.80
2023-02-06T22:02:02.700Z,73.48
2023-02-06T22:04:31.294Z,73.05
2023-02-06T22:06:59.798Z,73.22
2023-02-06T22:09:29.585Z,73.09
2023-02-06T22:11:58.400Z,73.11
2023-02-06T22:14:27.289Z,72.97
2023-02-06T22:16:55.734Z,73.02
2023-02-06T22:19:24.110Z,73.20
2023-02-06T22:21:52.538Z,72.99
2023-02-06T22:24:21.438Z,72.97
2023-02-06T22:26:51.749Z,72.92
2023-02-06T22:29:20.291Z,72.17
2023-02-06T22:31:49.328Z,72.56
2023-02-06T22:34:20.021Z,72.78
2023-02-06T22:36:51.135Z,73.13
2023-02-06T22:39:19.798Z,73.03
2023-02-06T22:41:48.409Z,73.31
2023-02-06T22:44:20.798Z,73.34
2023-02-06T22:46:51.461Z,73.26
2023-02-06T22:49:21.676Z,72.96
2023-02-06T22:51:50.096Z,73.09
2023-02-06T22:54:19.515Z,73.31
2023-02-06T22:56:48.050Z,73.53
2023-02-06T22:59:21.164Z,73.45
2023-02-06T23:01:52.252Z,73.55
2023-02-06T23:04:23.376Z,73.52
2023-02-06T23:06:52.930Z,73.46
2023-02-06T23:09:23.966Z,73.04
2023-02-06T23:11:53.388Z,73.52
2023-02-06T23:14:23.189Z,73.44
2023-02-06T23:16:52.526Z,73.39
2023-02-06T23:19:22.055Z,73.48
2023-02-06T23:21:52.297Z,73.60
2023-02-06T23:24:21.441Z,72.97
2023-02-06T23:26:53.297Z,73.33
2023-02-06T23:29:24.337Z,73.22
2023-02-06T23:31:53.027Z,73.50
2023-02-06T23:34:24.255Z,72.82
2023-02-06T23:36:53.484Z,72.72
2023-02-06T23:39:21.954Z,72.52
2023-02-06T23:41:50.724Z,72.76
2023-02-06T23:44:19.225Z,72.57
2023-02-06T23:46:49.150Z,72.53
2023-02-06T23:49:17.649Z,72.13
2023-02-06T23:51:46.075Z,72.35
2023-02-06T23:54:14.496Z,72.59
2023-02-06T23:56:43.263Z,72.75
2023-02-06T23:59:12.994Z,72.75
